Terminal Aerodrome Forecast
Issued by NWS

Home | Current Version | Previous Version | Text Only | Print | Product List | Glossary Off
Versions: 1 2 3 4 5 6 7 8 9 10 11 12 13 14 15 16 17 18 19 20 21 22 23 24 25

912
FTUS43 KGRB 091343 AAA
TAFAUW
TAF AMD
KAUW 091343Z 0914/1012 36010G16KT P6SM SCT020 BKN040
      TEMPO 0914/0918 -SN SCT015 BKN020
     FM091800 31010G17KT P6SM SCT035 BKN200
     FM092300 28006KT P6SM BKN120
     FM100400 27006KT P6SM BKN060
      TEMPO 1010/1012 BKN025=

USA.gov is the U.S. government's official web portal to all federal, state and local government web resources and services.